sensor_id;sensor_type;location;lat;lon;timestamp;pressure;altitude;pressure_sealevel;temperature;humidity
57948;BME280;43754;56.992;24.292;2023-02-22T00:01:20;101417.66;;;-2.57;100.00
57948;BME280;43754;56.992;24.292;2023-02-22T00:03:58;101417.41;;;-2.53;100.00
57948;BME280;43754;56.992;24.292;2023-02-22T00:06:30;101414.50;;;-2.47;100.00
57948;BME280;43754;56.992;24.292;2023-02-22T00:09:03;101415.31;;;-2.46;100.00
57948;BME280;43754;56.992;24.292;2023-02-22T00:11:36;101419.81;;;-2.48;100.00
57948;BME280;43754;56.992;24.292;2023-02-22T00:14:09;101422.84;;;-2.56;100.00
57948;BME280;43754;56.992;24.292;2023-02-22T00:16:41;101422.22;;;-2.61;100.00
57948;BME280;43754;56.992;24.292;2023-02-22T00:19:13;101427.31;;;-2.58;100.00
57948;BME280;43754;56.992;24.292;2023-02-22T00:21:50;101440.06;;;-2.67;100.00
57948;BME280;43754;56.992;24.292;2023-02-22T00:24:23;101435.56;;;-2.65;100.00
57948;BME280;43754;56.992;24.292;2023-02-22T00:26:56;101439.97;;;-2.66;100.00
57948;BME280;43754;56.992;24.292;2023-02-22T00:29:29;101442.06;;;-2.72;100.00
57948;BME280;43754;56.992;24.292;2023-02-22T00:32:01;101449.09;;;-2.73;100.00
57948;BME280;43754;56.992;24.292;2023-02-22T00:34:33;101450.41;;;-2.82;100.00
57948;BME280;43754;56.992;24.292;2023-02-22T00:37:05;101456.72;;;-2.86;100.00
57948;BME280;43754;56.992;24.292;2023-02-22T00:39:37;101453.88;;;-2.98;100.00
57948;BME280;43754;56.992;24.292;2023-02-22T00:42:10;101463.06;;;-2.90;100.00
57948;BME280;43754;56.992;24.292;2023-02-22T00:44:42;101463.34;;;-2.96;100.00
57948;BME280;43754;56.992;24.292;2023-02-22T00:47:16;101474.16;;;-3.02;100.00
57948;BME280;43754;56.992;24.292;2023-02-22T00:49:48;101472.75;;;-3.09;100.00
57948;BME280;43754;56.992;24.292;2023-02-22T00:52:20;101474.31;;;-3.05;100.00
57948;BME280;43754;56.992;24.292;2023-02-22T00:54:52;101477.09;;;-2.91;100.00
57948;BME280;43754;56.992;24.292;2023-02-22T00:57:25;101484.81;;;-2.88;100.00
57948;BME280;43754;56.992;24.292;2023-02-22T00:59:57;101487.44;;;-2.88;100.00
57948;BME280;43754;56.992;24.292;2023-02-22T01:02:29;101491.28;;;-2.95;100.00
57948;BME280;43754;56.992;24.292;2023-02-22T01:05:01;101492.84;;;-2.91;100.00
57948;BME280;43754;56.992;24.292;2023-02-22T01:07:33;101492.53;;;-2.85;100.00
57948;BME280;43754;56.992;24.292;2023-02-22T01:10:07;101502.88;;;-2.82;100.00
57948;BME280;43754;56.992;24.292;2023-02-22T01:12:43;101500.41;;;-2.85;100.00
57948;BME280;43754;56.992;24.292;2023-02-22T01:15:17;101505.31;;;-2.96;100.00
57948;BME280;43754;56.992;24.292;2023-02-22T01:17:52;101508.72;;;-2.94;100.00
57948;BME280;43754;56.992;24.292;2023-02-22T01:20:25;101512.91;;;-2.90;100.00
57948;BME280;43754;56.992;24.292;2023-02-22T01:22:59;101511.81;;;-2.86;100.00
57948;BME280;43754;56.992;24.292;2023-02-22T01:25:34;101523.69;;;-2.79;100.00
57948;BME280;43754;56.992;24.292;2023-02-22T01:28:08;101533.22;;;-2.76;100.00
57948;BME280;43754;56.992;24.292;2023-02-22T01:30:40;101520.16;;;-2.78;100.00
57948;BME280;43754;56.992;24.292;2023-02-22T01:33:12;101533.34;;;-2.79;100.00
57948;BME280;43754;56.992;24.292;2023-02-22T01:35:44;101530.38;;;-3.07;100.00
57948;BME280;43754;56.992;24.292;2023-02-22T01:38:17;101537.97;;;-3.20;100.00
57948;BME280;43754;56.992;24.292;2023-02-22T01:40:50;101535.28;;;-3.18;100.00
57948;BME280;43754;56.992;24.292;2023-02-22T01:43:26;101542.31;;;-3.19;100.00
57948;BME280;43754;56.992;24.292;2023-02-22T01:46:00;101540.00;;;-3.08;100.00
57948;BME280;43754;56.992;24.292;2023-02-22T01:48:39;101545.47;;;-3.12;100.00
57948;BME280;43754;56.992;24.292;2023-02-22T01:51:15;101556.16;;;-3.17;100.00
57948;BME280;43754;56.992;24.292;2023-02-22T01:53:51;101556.91;;;-3.13;100.00
57948;BME280;43754;56.992;24.292;2023-02-22T01:56:27;101554.81;;;-3.07;100.00
57948;BME280;43754;56.992;24.292;2023-02-22T01:59:07;101552.34;;;-3.10;100.00
57948;BME280;43754;56.992;24.292;2023-02-22T02:01:40;101556.25;;;-3.18;100.00
57948;BME280;43754;56.992;24.292;2023-02-22T02:04:18;101564.88;;;-3.16;100.00
57948;BME280;43754;56.992;24.292;2023-02-22T02:06:52;101569.00;;;-3.11;100.00
57948;BME280;43754;56.992;24.292;2023-02-22T02:09:29;101570.84;;;-3.13;100.00
57948;BME280;43754;56.992;24.292;2023-02-22T02:12:03;101571.09;;;-3.17;100.00
57948;BME280;43754;56.992;24.292;2023-02-22T02:14:40;101570.66;;;-3.27;100.00
57948;BME280;43754;56.992;24.292;2023-02-22T02:17:14;101568.19;;;-3.30;100.00
57948;BME280;43754;56.992;24.292;2023-02-22T02:19:54;101569.75;;;-3.26;100.00
57948;BME280;43754;56.992;24.292;2023-02-22T02:22:40;101559.69;;;-3.35;100.00
57948;BME280;43754;56.992;24.292;2023-02-22T02:25:56;101568.44;;;-3.36;100.00
57948;BME280;43754;56.992;24.292;2023-02-22T02:28:59;101571.56;;;-3.28;100.00
57948;BME280;43754;56.992;24.292;2023-02-22T02:34:57;101578.19;;;-3.38;100.00
57948;BME280;43754;56.992;24.292;2023-02-22T02:37:43;101582.78;;;-3.43;100.00
57948;BME280;43754;56.992;24.292;2023-02-22T02:40:20;101582.63;;;-3.40;100.00
57948;BME280;43754;56.992;24.292;2023-02-22T02:43:01;101584.81;;;-3.31;100.00
57948;BME280;43754;56.992;24.292;2023-02-22T02:45:39;101590.81;;;-3.29;100.00
57948;BME280;43754;56.992;24.292;2023-02-22T02:48:16;101600.31;;;-3.45;100.00
57948;BME280;43754;56.992;24.292;2023-02-22T02:50:52;101599.25;;;-3.41;100.00
57948;BME280;43754;56.992;24.292;2023-02-22T02:53:31;101599.63;;;-3.30;100.00
57948;BME280;43754;56.992;24.292;2023-02-22T02:56:06;101606.00;;;-3.36;100.00
57948;BME280;43754;56.992;24.292;2023-02-22T02:58:46;101612.50;;;-3.44;100.00
57948;BME280;43754;56.992;24.292;2023-02-22T03:01:34;101609.75;;;-3.41;100.00
57948;BME280;43754;56.992;24.292;2023-02-22T03:04:23;101606.72;;;-3.32;100.00
57948;BME280;43754;56.992;24.292;2023-02-22T03:07:12;101619.06;;;-3.34;100.00
57948;BME280;43754;56.992;24.292;2023-02-22T03:09:57;101622.72;;;-3.38;100.00
57948;BME280;43754;56.992;24.292;2023-02-22T03:12:40;101625.47;;;-3.41;100.00
57948;BME280;43754;56.992;24.292;2023-02-22T03:15:21;101623.00;;;-3.44;100.00
57948;BME280;43754;56.992;24.292;2023-02-22T03:18:02;101628.19;;;-3.43;100.00
57948;BME280;43754;56.992;24.292;2023-02-22T03:20:42;101635.44;;;-3.49;98.07
57948;BME280;43754;56.992;24.292;2023-02-22T03:23:22;101627.22;;;-3.60;98.12
57948;BME280;43754;56.992;24.292;2023-02-22T03:26:02;101634.56;;;-3.68;97.09
57948;BME280;43754;56.992;24.292;2023-02-22T03:28:39;101641.25;;;-3.82;98.90
57948;BME280;43754;56.992;24.292;2023-02-22T03:31:17;101639.34;;;-3.78;98.15
57948;BME280;43754;56.992;24.292;2023-02-22T03:33:55;101637.53;;;-3.76;98.01
57948;BME280;43754;56.992;24.292;2023-02-22T03:36:31;101641.53;;;-3.67;98.27
57948;BME280;43754;56.992;24.292;2023-02-22T03:39:09;101644.50;;;-3.56;99.15
57948;BME280;43754;56.992;24.292;2023-02-22T03:41:44;101637.22;;;-3.50;98.07
57948;BME280;43754;56.992;24.292;2023-02-22T03:44:23;101646.34;;;-3.58;98.09
57948;BME280;43754;56.992;24.292;2023-02-22T03:47:00;101649.38;;;-3.67;98.69
57948;BME280;43754;56.992;24.292;2023-02-22T03:49:37;101650.81;;;-3.60;100.00
57948;BME280;43754;56.992;24.292;2023-02-22T03:52:11;101654.13;;;-3.57;98.81
57948;BME280;43754;56.992;24.292;2023-02-22T03:54:45;101656.09;;;-3.62;98.12
57948;BME280;43754;56.992;24.292;2023-02-22T03:57:21;101664.81;;;-3.61;98.29
57948;BME280;43754;56.992;24.292;2023-02-22T04:00:08;101668.59;;;-3.48;99.02
57948;BME280;43754;56.992;24.292;2023-02-22T04:02:43;101663.06;;;-3.42;98.38
57948;BME280;43754;56.992;24.292;2023-02-22T04:05:22;101662.66;;;-3.52;98.97
57948;BME280;43754;56.992;24.292;2023-02-22T04:07:56;101680.59;;;-3.43;97.94
57948;BME280;43754;56.992;24.292;2023-02-22T04:10:32;101671.94;;;-3.45;95.34
57948;BME280;43754;56.992;24.292;2023-02-22T04:13:04;101677.38;;;-3.49;94.42
57948;BME280;43754;56.992;24.292;2023-02-22T04:15:40;101676.31;;;-3.45;96.48
57948;BME280;43754;56.992;24.292;2023-02-22T04:18:15;101679.03;;;-3.47;93.64
57948;BME280;43754;56.992;24.292;2023-02-22T04:20:49;101680.84;;;-3.49;94.54
57948;BME280;43754;56.992;24.292;2023-02-22T04:23:42;101686.66;;;-3.42;92.79
57948;BME280;43754;56.992;24.292;2023-02-22T04:26:17;101689.56;;;-3.48;92.71
57948;BME280;43754;56.992;24.292;2023-02-22T04:28:54;101692.13;;;-3.47;92.52
57948;BME280;43754;56.992;24.292;2023-02-22T04:31:28;101690.06;;;-3.40;92.98
57948;BME280;43754;56.992;24.292;2023-02-22T04:34:03;101691.66;;;-3.36;93.84
57948;BME280;43754;56.992;24.292;2023-02-22T04:36:39;101688.88;;;-3.33;93.80
57948;BME280;43754;56.992;24.292;2023-02-22T04:39:13;101688.84;;;-3.52;92.26
57948;BME280;43754;56.992;24.292;2023-02-22T04:41:47;101694.44;;;-3.59;92.84
57948;BME280;43754;56.992;24.292;2023-02-22T04:44:19;101700.97;;;-3.69;92.33
57948;BME280;43754;56.992;24.292;2023-02-22T04:46:51;101693.63;;;-3.61;93.37
57948;BME280;43754;56.992;24.292;2023-02-22T04:49:23;101704.50;;;-3.50;93.55
57948;BME280;43754;56.992;24.292;2023-02-22T04:51:56;101710.38;;;-3.45;91.28
57948;BME280;43754;56.992;24.292;2023-02-22T04:54:37;101707.25;;;-3.53;91.95
57948;BME280;43754;56.992;24.292;2023-02-22T04:57:10;101706.59;;;-3.58;91.58
57948;BME280;43754;56.992;24.292;2023-02-22T04:59:43;101717.03;;;-3.57;90.63
57948;BME280;43754;56.992;24.292;2023-02-22T05:02:16;101726.94;;;-3.63;91.72
57948;BME280;43754;56.992;24.292;2023-02-22T05:04:48;101723.13;;;-3.56;92.34
57948;BME280;43754;56.992;24.292;2023-02-22T05:07:21;101721.00;;;-3.48;92.53
57948;BME280;43754;56.992;24.292;2023-02-22T05:09:53;101732.06;;;-3.42;92.23
57948;BME280;43754;56.992;24.292;2023-02-22T05:12:27;101734.69;;;-3.42;92.94
57948;BME280;43754;56.992;24.292;2023-02-22T05:14:59;101733.47;;;-3.53;91.97
57948;BME280;43754;56.992;24.292;2023-02-22T05:17:31;101737.94;;;-3.55;93.05
57948;BME280;43754;56.992;24.292;2023-02-22T05:20:03;101747.41;;;-3.53;92.58
57948;BME280;43754;56.992;24.292;2023-02-22T05:22:35;101752.78;;;-3.56;91.71
57948;BME280;43754;56.992;24.292;2023-02-22T05:25:07;101744.66;;;-3.70;92.33
57948;BME280;43754;56.992;24.292;2023-02-22T05:27:43;101760.69;;;-3.78;92.51
57948;BME280;43754;56.992;24.292;2023-02-22T05:30:15;101763.38;;;-3.79;92.71
57948;BME280;43754;56.992;24.292;2023-02-22T05:32:47;101761.59;;;-3.79;92.57
57948;BME280;43754;56.992;24.292;2023-02-22T05:35:20;101765.09;;;-3.78;94.35
57948;BME280;43754;56.992;24.292;2023-02-22T05:37:53;101773.63;;;-3.73;93.51
57948;BME280;43754;56.992;24.292;2023-02-22T05:40:26;101771.03;;;-3.75;93.66
57948;BME280;43754;56.992;24.292;2023-02-22T05:43:01;101780.75;;;-3.77;93.94
57948;BME280;43754;56.992;24.292;2023-02-22T05:45:33;101773.47;;;-3.70;94.25
57948;BME280;43754;56.992;24.292;2023-02-22T05:48:07;101780.25;;;-3.64;93.60
57948;BME280;43754;56.992;24.292;2023-02-22T05:50:39;101785.66;;;-3.69;93.80
57948;BME280;43754;56.992;24.292;2023-02-22T05:53:11;101790.00;;;-3.68;93.53
57948;BME280;43754;56.992;24.292;2023-02-22T05:55:43;101800.59;;;-3.71;94.39
57948;BME280;43754;56.992;24.292;2023-02-22T05:58:18;101796.47;;;-3.77;93.61
57948;BME280;43754;56.992;24.292;2023-02-22T06:00:50;101801.03;;;-3.82;94.02
57948;BME280;43754;56.992;24.292;2023-02-22T06:03:22;101798.97;;;-3.95;95.51
57948;BME280;43754;56.992;24.292;2023-02-22T06:05:54;101802.94;;;-3.85;94.14
57948;BME280;43754;56.992;24.292;2023-02-22T06:08:26;101802.31;;;-3.92;95.06
57948;BME280;43754;56.992;24.292;2023-02-22T06:10:58;101807.13;;;-3.81;95.58
57948;BME280;43754;56.992;24.292;2023-02-22T06:13:31;101821.13;;;-3.82;95.52
57948;BME280;43754;56.992;24.292;2023-02-22T06:16:05;101821.31;;;-3.87;94.56
57948;BME280;43754;56.992;24.292;2023-02-22T06:18:37;101819.75;;;-3.91;94.59
57948;BME280;43754;56.992;24.292;2023-02-22T06:21:09;101823.03;;;-3.86;94.03
57948;BME280;43754;56.992;24.292;2023-02-22T06:23:41;101816.88;;;-3.85;94.59
57948;BME280;43754;56.992;24.292;2023-02-22T06:26:15;101825.53;;;-3.83;93.13
57948;BME280;43754;56.992;24.292;2023-02-22T06:28:48;101827.09;;;-3.79;94.50
57948;BME280;43754;56.992;24.292;2023-02-22T06:31:21;101832.09;;;-3.73;92.45
57948;BME280;43754;56.992;24.292;2023-02-22T06:33:53;101832.28;;;-3.77;92.97
57948;BME280;43754;56.992;24.292;2023-02-22T06:36:24;101846.84;;;-3.92;92.77
57948;BME280;43754;56.992;24.292;2023-02-22T06:38:57;101842.81;;;-4.00;93.42
57948;BME280;43754;56.992;24.292;2023-02-22T06:41:29;101848.31;;;-4.06;94.38
57948;BME280;43754;56.992;24.292;2023-02-22T06:44:02;101853.53;;;-4.06;95.10
57948;BME280;43754;56.992;24.292;2023-02-22T06:46:35;101849.75;;;-3.99;95.12
57948;BME280;43754;56.992;24.292;2023-02-22T06:49:07;101847.16;;;-3.78;95.01
57948;BME280;43754;56.992;24.292;2023-02-22T06:51:39;101848.84;;;-3.55;92.82
57948;BME280;43754;56.992;24.292;2023-02-22T06:54:11;101852.19;;;-3.51;93.33
57948;BME280;43754;56.992;24.292;2023-02-22T06:56:43;101856.19;;;-3.43;92.19
57948;BME280;43754;56.992;24.292;2023-02-22T06:59:16;101854.03;;;-3.33;92.53
57948;BME280;43754;56.992;24.292;2023-02-22T07:01:48;101859.34;;;-3.35;91.65
57948;BME280;43754;56.992;24.292;2023-02-22T07:04:20;101857.31;;;-3.28;90.98
57948;BME280;43754;56.992;24.292;2023-02-22T07:06:52;101869.66;;;-3.10;91.70
57948;BME280;43754;56.992;24.292;2023-02-22T07:09:24;101866.50;;;-2.98;90.34
57948;BME280;43754;56.992;24.292;2023-02-22T07:11:57;101868.97;;;-2.95;90.41
57948;BME280;43754;56.992;24.292;2023-02-22T07:14:30;101874.59;;;-2.84;87.86
57948;BME280;43754;56.992;24.292;2023-02-22T07:17:02;101881.09;;;-2.92;89.32
57948;BME280;43754;56.992;24.292;2023-02-22T07:19:34;101884.47;;;-2.89;90.46
57948;BME280;43754;56.992;24.292;2023-02-22T07:22:06;101887.47;;;-2.78;90.29
57948;BME280;43754;56.992;24.292;2023-02-22T07:24:38;101897.41;;;-2.65;89.10
57948;BME280;43754;56.992;24.292;2023-02-22T07:27:11;101896.72;;;-2.69;88.71
57948;BME280;43754;56.992;24.292;2023-02-22T07:29:45;101896.41;;;-3.02;90.40
57948;BME280;43754;56.992;24.292;2023-02-22T07:32:17;101904.28;;;-3.02;89.95
57948;BME280;43754;56.992;24.292;2023-02-22T07:34:49;101904.13;;;-2.99;90.36
57948;BME280;43754;56.992;24.292;2023-02-22T07:37:23;101903.59;;;-2.66;89.27
57948;BME280;43754;56.992;24.292;2023-02-22T07:39:55;101906.81;;;-2.41;88.93
57948;BME280;43754;56.992;24.292;2023-02-22T07:42:27;101908.13;;;-2.31;88.02
57948;BME280;43754;56.992;24.292;2023-02-22T07:45:00;101914.94;;;-2.08;87.00
57948;BME280;43754;56.992;24.292;2023-02-22T07:47:32;101923.88;;;-2.12;86.55
57948;BME280;43754;56.992;24.292;2023-02-22T07:50:04;101921.75;;;-2.04;86.11
57948;BME280;43754;56.992;24.292;2023-02-22T07:52:36;101923.00;;;-1.93;86.47
57948;BME280;43754;56.992;24.292;2023-02-22T07:55:08;101923.75;;;-1.91;86.01
57948;BME280;43754;56.992;24.292;2023-02-22T07:57:40;101928.53;;;-1.80;86.02
57948;BME280;43754;56.992;24.292;2023-02-22T08:00:15;101921.63;;;-1.64;86.10
57948;BME280;43754;56.992;24.292;2023-02-22T08:02:48;101920.81;;;-1.47;83.71
57948;BME280;43754;56.992;24.292;2023-02-22T08:05:22;101929.28;;;-1.78;81.05
57948;BME280;43754;56.992;24.292;2023-02-22T08:07:55;101925.56;;;-2.49;83.64
57948;BME280;43754;56.992;24.292;2023-02-22T08:10:27;101936.06;;;-2.49;84.41
57948;BME280;43754;56.992;24.292;2023-02-22T08:12:59;101940.97;;;-2.61;84.99
57948;BME280;43754;56.992;24.292;2023-02-22T08:15:35;101944.19;;;-2.75;86.14
57948;BME280;43754;56.992;24.292;2023-02-22T08:18:09;101936.94;;;-2.68;87.15
57948;BME280;43754;56.992;24.292;2023-02-22T08:20:43;101945.66;;;-2.29;86.86
57948;BME280;43754;56.992;24.292;2023-02-22T08:23:16;101939.63;;;-2.31;88.05
57948;BME280;43754;56.992;24.292;2023-02-22T08:25:49;101942.22;;;-2.11;87.65
57948;BME280;43754;56.992;24.292;2023-02-22T08:28:22;101943.63;;;-2.04;86.92
57948;BME280;43754;56.992;24.292;2023-02-22T08:30:56;101948.47;;;-1.95;87.42
57948;BME280;43754;56.992;24.292;2023-02-22T08:33:28;101952.56;;;-2.08;86.99
57948;BME280;43754;56.992;24.292;2023-02-22T08:36:00;101957.13;;;-2.11;86.99
57948;BME280;43754;56.992;24.292;2023-02-22T08:38:32;101956.97;;;-2.08;87.37
57948;BME280;43754;56.992;24.292;2023-02-22T08:41:05;101960.97;;;-2.00;87.36
57948;BME280;43754;56.992;24.292;2023-02-22T08:43:37;101959.47;;;-1.87;86.32
57948;BME280;43754;56.992;24.292;2023-02-22T08:46:10;101967.66;;;-1.55;84.04
57948;BME280;43754;56.992;24.292;2023-02-22T08:48:48;101960.13;;;-1.27;83.51
57948;BME280;43754;56.992;24.292;2023-02-22T08:51:20;101968.84;;;-0.90;80.72
57948;BME280;43754;56.992;24.292;2023-02-22T08:53:52;101973.78;;;-1.02;78.48
57948;BME280;43754;56.992;24.292;2023-02-22T08:56:25;101975.19;;;-0.95;74.90
57948;BME280;43754;56.992;24.292;2023-02-22T08:58:57;101973.13;;;-0.88;73.83
57948;BME280;43754;56.992;24.292;2023-02-22T09:01:30;101975.84;;;-1.25;73.96
57948;BME280;43754;56.992;24.292;2023-02-22T09:04:04;101978.44;;;-1.43;75.47
57948;BME280;43754;56.992;24.292;2023-02-22T09:06:39;101981.56;;;-1.53;73.54
57948;BME280;43754;56.992;24.292;2023-02-22T09:09:11;101984.25;;;-1.36;71.97
57948;BME280;43754;56.992;24.292;2023-02-22T09:11:43;101986.59;;;-1.49;71.70
57948;BME280;43754;56.992;24.292;2023-02-22T09:14:15;101987.94;;;-1.21;72.21
57948;BME280;43754;56.992;24.292;2023-02-22T09:16:49;101987.56;;;-0.97;71.79
57948;BME280;43754;56.992;24.292;2023-02-22T09:19:21;101985.84;;;-1.15;72.29
57948;BME280;43754;56.992;24.292;2023-02-22T09:21:54;101990.81;;;-0.92;71.17
57948;BME280;43754;56.992;24.292;2023-02-22T09:24:26;101990.06;;;-0.76;70.06
57948;BME280;43754;56.992;24.292;2023-02-22T09:26:58;101996.25;;;-0.60;69.24
57948;BME280;43754;56.992;24.292;2023-02-22T09:29:31;101996.78;;;-0.54;68.65
57948;BME280;43754;56.992;24.292;2023-02-22T09:32:05;102000.59;;;-0.76;68.10
57948;BME280;43754;56.992;24.292;2023-02-22T09:34:37;101995.00;;;-1.05;69.39
57948;BME280;43754;56.992;24.292;2023-02-22T09:37:16;102002.22;;;-1.27;70.13
57948;BME280;43754;56.992;24.292;2023-02-22T09:39:49;101999.03;;;-1.52;69.40
57948;BME280;43754;56.992;24.292;2023-02-22T09:42:27;101999.97;;;-1.72;70.17
57948;BME280;43754;56.992;24.292;2023-02-22T09:45:09;102002.09;;;-1.43;72.29
57948;BME280;43754;56.992;24.292;2023-02-22T09:47:47;102004.94;;;-1.11;70.38
57948;BME280;43754;56.992;24.292;2023-02-22T09:50:23;102003.22;;;-0.94;67.10
57948;BME280;43754;56.992;24.292;2023-02-22T09:52:59;102008.47;;;-0.94;68.81
57948;BME280;43754;56.992;24.292;2023-02-22T09:55:38;102010.22;;;-1.11;68.58
57948;BME280;43754;56.992;24.292;2023-02-22T09:58:19;102002.91;;;-0.70;66.88
57948;BME280;43754;56.992;24.292;2023-02-22T10:00:56;102001.72;;;-0.30;67.24
57948;BME280;43754;56.992;24.292;2023-02-22T10:03:35;102007.22;;;-0.18;63.08
57948;BME280;43754;56.992;24.292;2023-02-22T10:06:13;102011.59;;;-0.51;63.96
57948;BME280;43754;56.992;24.292;2023-02-22T10:08:47;102016.31;;;-0.58;64.57
57948;BME280;43754;56.992;24.292;2023-02-22T10:11:36;102019.16;;;-0.28;64.26
57948;BME280;43754;56.992;24.292;2023-02-22T10:17:22;102023.28;;;-0.39;61.02
57948;BME280;43754;56.992;24.292;2023-02-22T10:20:09;102028.09;;;-0.48;63.17
57948;BME280;43754;56.992;24.292;2023-02-22T10:22:56;102030.78;;;-0.32;63.95
57948;BME280;43754;56.992;24.292;2023-02-22T10:25:33;102023.25;;;-0.22;63.11
57948;BME280;43754;56.992;24.292;2023-02-22T10:28:14;102027.00;;;0.07;62.97
57948;BME280;43754;56.992;24.292;2023-02-22T10:30:50;102036.59;;;0.40;62.72
57948;BME280;43754;56.992;24.292;2023-02-22T10:33:29;102042.00;;;0.22;60.38
57948;BME280;43754;56.992;24.292;2023-02-22T10:36:04;102030.84;;;-0.16;61.68
57948;BME280;43754;56.992;24.292;2023-02-22T10:38:38;102034.44;;;0.16;62.00
57948;BME280;43754;56.992;24.292;2023-02-22T10:41:19;102028.00;;;0.53;61.06
57948;BME280;43754;56.992;24.292;2023-02-22T10:43:51;102030.91;;;0.48;62.27
57948;BME280;43754;56.992;24.292;2023-02-22T10:46:26;102040.84;;;0.59;60.48
57948;BME280;43754;56.992;24.292;2023-02-22T10:49:03;102041.03;;;0.71;58.84
57948;BME280;43754;56.992;24.292;2023-02-22T10:51:40;102042.13;;;0.67;60.08
57948;BME280;43754;56.992;24.292;2023-02-22T10:54:23;102036.44;;;0.59;59.66
57948;BME280;43754;56.992;24.292;2023-02-22T10:56:58;102038.03;;;-0.03;58.86
57948;BME280;43754;56.992;24.292;2023-02-22T10:59:33;102037.88;;;-0.17;60.11
57948;BME280;43754;56.992;24.292;2023-02-22T11:02:15;102039.78;;;0.14;59.66
57948;BME280;43754;56.992;24.292;2023-02-22T11:04:50;102051.75;;;0.37;60.09
57948;BME280;43754;56.992;24.292;2023-02-22T11:07:26;102040.63;;;0.15;58.83
57948;BME280;43754;56.992;24.292;2023-02-22T11:10:00;102045.41;;;-0.09;59.85
57948;BME280;43754;56.992;24.292;2023-02-22T11:12:34;102047.94;;;0.25;60.29
57948;BME280;43754;56.992;24.292;2023-02-22T11:15:26;102046.06;;;0.60;59.13
57948;BME280;43754;56.992;24.292;2023-02-22T11:17:59;102054.03;;;0.59;57.84
57948;BME280;43754;56.992;24.292;2023-02-22T11:20:34;102057.03;;;0.68;58.35
57948;BME280;43754;56.992;24.292;2023-02-22T11:23:10;102060.41;;;0.39;57.53
57948;BME280;43754;56.992;24.292;2023-02-22T11:25:43;102064.34;;;0.63;58.47
57948;BME280;43754;56.992;24.292;2023-02-22T11:28:19;102069.81;;;0.76;56.37
57948;BME280;43754;56.992;24.292;2023-02-22T11:30:51;102066.06;;;0.64;55.64
57948;BME280;43754;56.992;24.292;2023-02-22T11:33:25;102065.97;;;0.66;56.63
57948;BME280;43754;56.992;24.292;2023-02-22T11:36:01;102065.47;;;0.75;56.84
57948;BME280;43754;56.992;24.292;2023-02-22T11:38:37;102075.31;;;0.71;55.99
57948;BME280;43754;56.992;24.292;2023-02-22T11:41:15;102072.44;;;0.60;54.65
57948;BME280;43754;56.992;24.292;2023-02-22T11:43:49;102073.41;;;0.26;57.78
57948;BME280;43754;56.992;24.292;2023-02-22T11:46:22;102078.47;;;0.14;56.03
57948;BME280;43754;56.992;24.292;2023-02-22T11:49:01;102072.69;;;-0.10;55.99
57948;BME280;43754;56.992;24.292;2023-02-22T11:51:45;102070.69;;;-0.05;57.65
57948;BME280;43754;56.992;24.292;2023-02-22T11:54:48;102068.97;;;-0.06;56.39
57948;BME280;43754;56.992;24.292;2023-02-22T11:57:33;102072.00;;;0.04;56.98
57948;BME280;43754;56.992;24.292;2023-02-22T12:00:17;102075.06;;;0.12;56.73
57948;BME280;43754;56.992;24.292;2023-02-22T12:03:09;102083.72;;;0.14;55.86
57948;BME280;43754;56.992;24.292;2023-02-22T12:05:57;102080.00;;;0.18;55.98
57948;BME280;43754;56.992;24.292;2023-02-22T12:08:41;102078.63;;;0.11;56.77
57948;BME280;43754;56.992;24.292;2023-02-22T12:11:22;102087.69;;;0.05;56.61
57948;BME280;43754;56.992;24.292;2023-02-22T12:14:09;102092.56;;;0.13;56.50
57948;BME280;43754;56.992;24.292;2023-02-22T12:16:59;102094.94;;;-0.33;56.56
57948;BME280;43754;56.992;24.292;2023-02-22T12:19:38;102103.28;;;-0.25;57.88
57948;BME280;43754;56.992;24.292;2023-02-22T12:22:16;102098.41;;;-0.15;58.89
57948;BME280;43754;56.992;24.292;2023-02-22T12:24:55;102097.44;;;-0.13;60.12
57948;BME280;43754;56.992;24.292;2023-02-22T12:27:44;102101.22;;;-0.35;59.77
57948;BME280;43754;56.992;24.292;2023-02-22T12:30:21;102103.63;;;-0.84;60.45
57948;BME280;43754;56.992;24.292;2023-02-22T12:32:57;102111.00;;;-0.73;61.53
57948;BME280;43754;56.992;24.292;2023-02-22T12:35:33;102114.03;;;-0.64;61.00
57948;BME280;43754;56.992;24.292;2023-02-22T12:38:13;102109.69;;;-0.65;61.34
57948;BME280;43754;56.992;24.292;2023-02-22T12:40:52;102118.56;;;-0.49;61.73
57948;BME280;43754;56.992;24.292;2023-02-22T12:43:32;102119.56;;;-0.51;59.68
57948;BME280;43754;56.992;24.292;2023-02-22T12:46:09;102113.50;;;-0.53;61.11
57948;BME280;43754;56.992;24.292;2023-02-22T12:48:48;102119.81;;;-0.74;60.94
57948;BME280;43754;56.992;24.292;2023-02-22T12:51:30;102130.69;;;-1.18;61.71
57948;BME280;43754;56.992;24.292;2023-02-22T12:54:09;102131.97;;;-1.26;61.77
57948;BME280;43754;56.992;24.292;2023-02-22T12:56:49;102141.56;;;-1.07;63.14
57948;BME280;43754;56.992;24.292;2023-02-22T12:59:28;102142.91;;;-0.98;61.11
57948;BME280;43754;56.992;24.292;2023-02-22T13:02:10;102149.88;;;-1.16;60.77
57948;BME280;43754;56.992;24.292;2023-02-22T13:04:43;102140.56;;;-1.23;60.01
57948;BME280;43754;56.992;24.292;2023-02-22T13:07:21;102150.00;;;-1.19;59.69
57948;BME280;43754;56.992;24.292;2023-02-22T13:10:16;102147.63;;;-1.05;61.35
57948;BME280;43754;56.992;24.292;2023-02-22T13:12:58;102148.72;;;-1.29;60.29
57948;BME280;43754;56.992;24.292;2023-02-22T13:15:42;102152.78;;;-1.22;61.27
57948;BME280;43754;56.992;24.292;2023-02-22T13:18:21;102154.47;;;-1.40;59.82
57948;BME280;43754;56.992;24.292;2023-02-22T13:21:00;102160.84;;;-1.45;62.10
57948;BME280;43754;56.992;24.292;2023-02-22T13:23:43;102166.50;;;-1.34;61.69
57948;BME280;43754;56.992;24.292;2023-02-22T13:26:23;102169.44;;;-1.60;60.42
57948;BME280;43754;56.992;24.292;2023-02-22T13:29:00;102175.22;;;-1.93;60.73